createdAt,value
2022-12-24T00:00:29.489Z,99054.09
2022-12-24T00:02:55.929Z,99050.09
2022-12-24T00:05:22.294Z,99047.91
2022-12-24T00:07:48.654Z,99046.16
2022-12-24T00:10:14.953Z,99048.37
2022-12-24T00:12:41.265Z,99061.44
2022-12-24T00:15:07.607Z,99046.00
2022-12-24T00:17:34.055Z,99059.53
2022-12-24T00:20:00.399Z,99062.59
2022-12-24T00:22:26.723Z,99077.06
2022-12-24T00:24:53.042Z,99078.13
2022-12-24T00:27:19.355Z,99076.59
2022-12-24T00:29:45.745Z,99086.16
2022-12-24T00:32:12.145Z,99075.66
2022-12-24T00:34:38.457Z,99070.69
2022-12-24T00:37:04.813Z,99095.09
2022-12-24T00:39:31.190Z,99102.25
2022-12-24T00:41:57.521Z,99102.97
2022-12-24T00:44:23.859Z,99075.91
2022-12-24T00:46:51.096Z,99079.37
2022-12-24T00:49:17.413Z,99074.09
2022-12-24T00:51:43.785Z,99071.91
2022-12-24T00:54:10.148Z,99086.66
2022-12-24T00:56:36.489Z,99100.38
2022-12-24T00:59:06.220Z,99091.72
2022-12-24T01:01:32.640Z,99107.63
2022-12-24T01:04:18.055Z,99116.00
2022-12-24T01:06:44.375Z,99115.25
2022-12-24T01:09:10.776Z,99114.75
2022-12-24T01:11:37.152Z,99113.34
2022-12-24T01:14:03.516Z,99120.91
2022-12-24T01:16:29.882Z,99113.78
2022-12-24T01:18:56.285Z,99112.81
2022-12-24T01:21:26.192Z,99126.88
2022-12-24T01:23:52.541Z,99139.91
2022-12-24T01:26:18.879Z,99138.28
2022-12-24T01:28:45.227Z,99138.00
2022-12-24T01:31:11.623Z,99140.41
2022-12-24T01:33:37.970Z,99141.50
2022-12-24T01:36:04.322Z,99158.03
2022-12-24T01:38:30.650Z,99155.34
2022-12-24T01:41:15.893Z,99149.19
2022-12-24T01:43:42.204Z,99146.50
2022-12-24T01:46:08.577Z,99148.19
2022-12-24T01:48:35.008Z,99153.53
2022-12-24T01:51:01.846Z,99161.22
2022-12-24T01:53:28.167Z,99160.22
2022-12-24T01:55:54.544Z,99166.88
2022-12-24T01:58:20.849Z,99168.50
2022-12-24T02:00:47.199Z,99183.31
2022-12-24T02:03:13.612Z,99196.59
2022-12-24T02:05:40.135Z,99193.97
2022-12-24T02:08:06.502Z,99201.88
2022-12-24T02:10:32.968Z,99207.09
2022-12-24T02:12:59.325Z,99202.63
2022-12-24T02:15:29.209Z,99200.13
2022-12-24T02:17:55.530Z,99204.72
2022-12-24T02:20:21.840Z,99202.13
2022-12-24T02:22:48.173Z,99205.03
2022-12-24T02:25:14.496Z,99204.66
2022-12-24T02:27:40.804Z,99203.41
2022-12-24T02:30:07.141Z,99209.78
2022-12-24T02:32:33.515Z,99204.94
2022-12-24T02:34:59.856Z,99225.13
2022-12-24T02:37:26.258Z,99224.75
2022-12-24T02:39:52.611Z,99226.47
2022-12-24T02:42:19.508Z,99235.50
2022-12-24T02:44:45.882Z,99229.50
2022-12-24T02:47:12.248Z,99236.59
2022-12-24T02:49:38.564Z,99237.25
2022-12-24T02:52:04.980Z,99237.19
2022-12-24T02:54:31.319Z,99249.41
2022-12-24T02:56:57.649Z,99244.78
2022-12-24T02:59:23.956Z,99245.44
2022-12-24T03:01:50.367Z,99255.50
2022-12-24T03:04:16.792Z,99268.56
2022-12-24T03:06:43.116Z,99275.69
2022-12-24T03:09:09.432Z,99260.94
2022-12-24T03:11:36.023Z,99265.84
2022-12-24T03:14:02.325Z,99256.41
2022-12-24T03:16:28.731Z,99275.44
2022-12-24T03:18:55.084Z,99282.72
2022-12-24T03:21:21.495Z,99288.75
2022-12-24T03:23:47.807Z,99292.44
2022-12-24T03:26:15.484Z,99278.13
2022-12-24T03:28:41.858Z,99291.47
2022-12-24T03:31:08.238Z,99281.91
2022-12-24T03:33:34.609Z,99279.13
2022-12-24T03:36:00.969Z,99284.37
2022-12-24T03:38:27.299Z,99293.81
2022-12-24T03:40:53.613Z,99295.25
2022-12-24T03:43:19.920Z,99290.03
2022-12-24T03:45:46.236Z,99292.56
2022-12-24T03:48:12.575Z,99298.50
2022-12-24T03:50:38.878Z,99295.34
2022-12-24T03:53:05.207Z,99300.47
2022-12-24T03:55:31.536Z,99295.62
2022-12-24T03:57:57.886Z,99307.66
2022-12-24T04:00:24.180Z,99307.00
2022-12-24T04:02:50.673Z,99313.75
2022-12-24T04:05:17.427Z,99304.50
2022-12-24T04:07:43.753Z,99308.00
2022-12-24T04:10:10.223Z,99310.25
2022-12-24T04:12:36.529Z,99322.91
2022-12-24T04:15:03.022Z,99319.06
2022-12-24T04:17:29.457Z,99328.97
2022-12-24T04:19:55.762Z,99332.19
2022-12-24T04:22:22.064Z,99326.62
2022-12-24T04:24:48.398Z,99318.56
2022-12-24T04:27:14.758Z,99323.25
2022-12-24T04:29:41.082Z,99339.09
2022-12-24T04:32:07.435Z,99329.81
2022-12-24T04:34:33.810Z,99331.19
2022-12-24T04:37:00.120Z,99344.25
2022-12-24T04:39:26.440Z,99349.41
2022-12-24T04:41:52.746Z,99345.91
2022-12-24T04:44:19.094Z,99356.16
2022-12-24T04:46:45.419Z,99359.31
2022-12-24T04:49:11.766Z,99359.47
2022-12-24T04:51:38.157Z,99351.47
2022-12-24T04:54:04.492Z,99371.34
2022-12-24T04:56:30.899Z,99364.59
2022-12-24T04:58:57.244Z,99366.16
2022-12-24T05:01:23.763Z,99373.84
2022-12-24T05:03:50.198Z,99375.41
2022-12-24T05:06:16.524Z,99378.50
2022-12-24T05:08:43.875Z,99393.81
2022-12-24T05:11:10.186Z,99389.47
2022-12-24T05:13:44.096Z,99393.53
2022-12-24T05:16:12.900Z,99408.00
2022-12-24T05:18:39.366Z,99413.31
2022-12-24T05:21:05.673Z,99418.59
2022-12-24T05:23:51.014Z,99421.75
2022-12-24T05:26:23.279Z,99430.56
2022-12-24T05:28:49.597Z,99426.28
2022-12-24T05:31:15.973Z,99436.69
2022-12-24T05:33:42.299Z,99434.12
2022-12-24T05:36:09.262Z,99450.09
2022-12-24T05:38:35.571Z,99449.84
2022-12-24T05:41:01.878Z,99450.81
2022-12-24T05:43:28.203Z,99444.81
2022-12-24T05:45:54.581Z,99445.97
2022-12-24T05:48:20.943Z,99445.06
2022-12-24T05:50:47.253Z,99457.72
2022-12-24T05:53:13.602Z,99467.00
2022-12-24T05:55:39.902Z,99466.19
2022-12-24T05:58:06.224Z,99466.94
2022-12-24T06:00:32.541Z,99473.66
2022-12-24T06:02:58.917Z,99467.53
2022-12-24T06:05:25.257Z,99480.66
2022-12-24T06:07:51.595Z,99488.13
2022-12-24T06:10:18.003Z,99487.31
2022-12-24T06:12:44.367Z,99496.47
2022-12-24T06:15:10.708Z,99498.72
2022-12-24T06:17:37.027Z,99510.56
2022-12-24T06:20:03.351Z,99518.50
2022-12-24T06:22:29.723Z,99530.25
2022-12-24T06:24:56.027Z,99521.78
2022-12-24T06:27:22.350Z,99527.00
2022-12-24T06:29:48.656Z,99525.75
2022-12-24T06:32:14.982Z,99532.56
2022-12-24T06:34:41.288Z,99538.41
2022-12-24T06:37:07.609Z,99540.38
2022-12-24T06:39:33.926Z,99541.56
2022-12-24T06:42:00.230Z,99552.22
2022-12-24T06:44:26.628Z,99549.81
2022-12-24T06:46:53.034Z,99545.84
2022-12-24T06:49:19.449Z,99546.97
2022-12-24T06:51:45.787Z,99547.69
2022-12-24T06:54:12.104Z,99566.13
2022-12-24T06:56:38.469Z,99565.47
2022-12-24T06:59:05.706Z,99565.72
2022-12-24T07:01:32.234Z,99571.19
2022-12-24T07:03:58.692Z,99577.53
2022-12-24T07:06:25.128Z,99591.47
2022-12-24T07:08:51.458Z,99593.19
2022-12-24T07:11:17.874Z,99597.47
2022-12-24T07:13:44.214Z,99603.34
2022-12-24T07:16:10.713Z,99597.78
2022-12-24T07:18:37.107Z,99609.19
2022-12-24T07:21:03.549Z,99609.91
2022-12-24T07:23:31.267Z,99621.91
2022-12-24T07:25:57.577Z,99624.50
2022-12-24T07:28:27.878Z,99631.97
2022-12-24T07:30:54.681Z,99640.09
2022-12-24T07:33:21.036Z,99633.69
2022-12-24T07:35:52.184Z,99646.72
2022-12-24T07:38:21.971Z,99649.03
2022-12-24T07:40:48.279Z,99643.44
2022-12-24T07:43:14.581Z,99645.91
2022-12-24T07:45:41.029Z,99653.47
2022-12-24T07:48:07.355Z,99648.03
2022-12-24T07:50:33.653Z,99658.94
2022-12-24T07:52:59.961Z,99664.75
2022-12-24T07:55:26.278Z,99659.06
2022-12-24T07:57:52.608Z,99665.91
2022-12-24T08:00:18.922Z,99658.69
2022-12-24T08:02:45.412Z,99661.84
2022-12-24T08:05:12.064Z,99684.25
2022-12-24T08:07:38.420Z,99683.09
2022-12-24T08:10:04.773Z,99676.72
2022-12-24T08:12:31.078Z,99695.31
2022-12-24T08:14:57.425Z,99705.66
2022-12-24T08:17:28.536Z,99696.91
2022-12-24T08:19:58.377Z,99690.91
2022-12-24T08:22:24.711Z,99703.53
2022-12-24T08:24:51.035Z,99712.53
2022-12-24T08:27:17.332Z,99711.34
2022-12-24T08:29:43.690Z,99721.00
2022-12-24T08:32:10.074Z,99729.84
2022-12-24T08:34:36.483Z,99729.38
2022-12-24T08:37:02.819Z,99738.28
2022-12-24T08:39:29.257Z,99742.00
2022-12-24T08:41:55.624Z,99753.97
2022-12-24T08:44:21.952Z,99740.59
2022-12-24T08:46:48.281Z,99744.91
2022-12-24T08:49:14.674Z,99760.09
2022-12-24T08:51:41.036Z,99764.19
2022-12-24T08:54:07.516Z,99768.12
2022-12-24T08:56:34.600Z,99773.91
2022-12-24T08:59:00.925Z,99775.09
2022-12-24T09:01:27.304Z,99782.41
2022-12-24T09:03:53.730Z,99789.59
2022-12-24T09:06:20.161Z,99792.63
2022-12-24T09:08:46.564Z,99792.75
2022-12-24T09:11:12.879Z,99799.25
2022-12-24T09:13:39.263Z,99801.78
2022-12-24T09:16:05.649Z,99805.50
2022-12-24T09:18:31.988Z,99806.53
2022-12-24T09:20:58.297Z,99801.75
2022-12-24T09:23:24.881Z,99818.72
2022-12-24T09:25:51.181Z,99823.03
2022-12-24T09:28:17.520Z,99826.19
2022-12-24T09:30:43.828Z,99831.25
2022-12-24T09:33:10.158Z,99819.97
2022-12-24T09:35:36.543Z,99838.56
2022-12-24T09:38:03.231Z,99826.78
2022-12-24T09:40:29.594Z,99826.91
2022-12-24T09:42:55.957Z,99833.03
2022-12-24T09:45:22.266Z,99840.09
2022-12-24T09:47:53.621Z,99847.22
2022-12-24T09:50:19.915Z,99853.66
2022-12-24T09:52:46.214Z,99851.59
2022-12-24T09:55:12.546Z,99849.31
2022-12-24T09:57:38.935Z,99846.66
2022-12-24T10:00:05.251Z,99856.19
2022-12-24T10:02:31.708Z,99859.44
2022-12-24T10:04:58.204Z,99864.59
2022-12-24T10:07:24.554Z,99875.75
2022-12-24T10:09:50.881Z,99870.81
2022-12-24T10:12:17.206Z,99868.00
2022-12-24T10:14:43.528Z,99873.88
2022-12-24T10:17:09.909Z,99878.22
2022-12-24T10:19:36.267Z,99878.75
2022-12-24T10:22:02.612Z,99888.81
2022-12-24T10:24:28.936Z,99886.00
2022-12-24T10:26:55.237Z,99891.31
2022-12-24T10:29:21.565Z,99896.78
2022-12-24T10:31:47.880Z,99899.38
2022-12-24T10:34:14.199Z,99893.00
2022-12-24T10:36:40.539Z,99897.94
2022-12-24T10:39:06.852Z,99899.56
2022-12-24T10:41:33.173Z,99897.94
2022-12-24T10:43:59.484Z,99899.66
2022-12-24T10:46:25.852Z,99906.59
2022-12-24T10:48:52.250Z,99909.13
2022-12-24T10:51:18.549Z,99900.63
2022-12-24T10:53:44.870Z,99891.38
2022-12-24T10:56:11.245Z,99902.94
2022-12-24T10:58:37.561Z,99899.81
2022-12-24T11:01:04.000Z,99915.06
2022-12-24T11:03:30.652Z,99921.44
2022-12-24T11:05:56.997Z,99921.84
2022-12-24T11:08:23.430Z,99929.16
2022-12-24T11:10:49.756Z,99938.25
2022-12-24T11:13:36.863Z,99929.09
2022-12-24T11:16:02.620Z,99948.06
2022-12-24T11:18:29.004Z,99941.09
2022-12-24T11:20:55.419Z,99935.06
2022-12-24T11:23:21.744Z,99946.25
2022-12-24T11:25:48.077Z,99939.78
2022-12-24T11:28:14.385Z,99945.13
2022-12-24T11:30:40.781Z,99954.41
2022-12-24T11:33:07.136Z,99956.97
2022-12-24T11:35:33.454Z,99961.44
2022-12-24T11:37:59.816Z,99961.63
2022-12-24T11:40:28.589Z,99959.56
2022-12-24T11:42:54.915Z,99972.47
2022-12-24T11:45:21.266Z,99977.38
2022-12-24T11:47:47.627Z,99969.19
2022-12-24T11:50:18.450Z,99971.19
2022-12-24T11:52:45.207Z,99975.72
2022-12-24T11:55:15.964Z,99985.13
2022-12-24T11:57:43.006Z,99984.31
2022-12-24T12:00:09.340Z,99989.62
2022-12-24T12:02:35.739Z,99990.91
2022-12-24T12:05:02.045Z,99996.06
2022-12-24T12:07:28.358Z,99995.69
2022-12-24T12:09:54.663Z,99999.28
2022-12-24T12:12:20.987Z,99999.94
2022-12-24T12:14:47.320Z,99992.84
2022-12-24T12:17:13.640Z,100005.00
2022-12-24T12:19:39.965Z,100006.16
2022-12-24T12:22:06.352Z,100006.41
2022-12-24T12:24:32.789Z,100015.34
2022-12-24T12:26:59.101Z,100013.03
2022-12-24T12:29:25.428Z,100008.03
2022-12-24T12:31:51.772Z,100009.66
2022-12-24T12:34:18.180Z,100011.88
2022-12-24T12:36:44.498Z,100006.16
2022-12-24T12:39:11.016Z,100000.91
2022-12-24T12:41:37.325Z,100001.72
2022-12-24T12:44:04.652Z,100007.66
2022-12-24T12:46:31.043Z,100020.25
2022-12-24T12:49:02.473Z,100020.63
2022-12-24T12:51:29.549Z,100023.66
2022-12-24T12:53:55.959Z,100030.63
2022-12-24T12:56:23.997Z,100021.09
2022-12-24T12:58:50.529Z,100025.72
2022-12-24T13:01:16.992Z,100019.94
2022-12-24T13:03:43.389Z,100019.31
2022-12-24T13:06:09.698Z,100015.84
2022-12-24T13:08:36.021Z,100019.44
2022-12-24T13:11:02.356Z,100011.19
2022-12-24T13:13:28.662Z,100011.31
2022-12-24T13:15:55.159Z,100023.37
2022-12-24T13:18:21.515Z,100025.78
2022-12-24T13:20:47.861Z,100033.22
2022-12-24T13:23:14.200Z,100022.94
2022-12-24T13:25:40.494Z,100025.72
2022-12-24T13:28:06.942Z,100032.09
2022-12-24T13:30:33.271Z,100030.25
2022-12-24T13:32:59.603Z,100027.06
2022-12-24T13:35:25.921Z,100033.13
2022-12-24T13:37:52.285Z,100030.44
2022-12-24T13:40:18.617Z,100027.81
2022-12-24T13:42:44.930Z,100034.69
2022-12-24T13:45:11.243Z,100036.25
2022-12-24T13:47:37.572Z,100041.00
2022-12-24T13:50:03.877Z,100032.66
2022-12-24T13:52:30.631Z,100045.38
2022-12-24T13:54:56.953Z,100047.50
2022-12-24T13:57:23.292Z,100043.38
2022-12-24T13:59:49.617Z,100047.25
2022-12-24T14:02:16.048Z,100042.75
2022-12-24T14:04:42.685Z,100045.41
2022-12-24T14:07:09.371Z,100051.69
2022-12-24T14:09:35.680Z,100050.87
2022-12-24T14:12:02.140Z,100050.66
2022-12-24T14:14:28.443Z,100055.00
2022-12-24T14:16:54.897Z,100049.53
2022-12-24T14:19:21.290Z,100054.16
2022-12-24T14:21:47.595Z,100069.19
2022-12-24T14:24:13.897Z,100061.63
2022-12-24T14:26:40.227Z,100066.31
2022-12-24T14:29:06.557Z,100070.47
2022-12-24T14:31:32.987Z,100078.28
2022-12-24T14:33:59.524Z,100080.59
2022-12-24T14:36:25.847Z,100090.63
2022-12-24T14:38:52.398Z,100091.00
2022-12-24T14:41:18.705Z,100092.63
2022-12-24T14:43:45.000Z,100095.66
2022-12-24T14:46:11.481Z,100099.00
2022-12-24T14:48:37.987Z,100102.28
2022-12-24T14:51:04.573Z,100097.03
2022-12-24T14:53:30.883Z,100101.09
2022-12-24T14:55:57.207Z,100105.53
2022-12-24T14:58:23.552Z,100108.22
2022-12-24T15:00:49.950Z,100113.78
2022-12-24T15:03:16.481Z,100119.84
2022-12-24T15:05:42.840Z,100121.69
2022-12-24T15:08:09.197Z,100129.25
2022-12-24T15:10:35.684Z,100127.38
2022-12-24T15:13:01.992Z,100128.37
2022-12-24T15:15:28.344Z,100132.88
2022-12-24T15:17:54.726Z,100135.09
2022-12-24T15:20:21.044Z,100134.50
2022-12-24T15:22:47.386Z,100135.53
2022-12-24T15:25:13.680Z,100139.59
2022-12-24T15:27:40.041Z,100156.44
2022-12-24T15:30:06.366Z,100157.25
2022-12-24T15:32:32.688Z,100159.78
2022-12-24T15:35:00.373Z,100148.97
2022-12-24T15:37:26.711Z,100160.41
2022-12-24T15:39:53.049Z,100164.12
2022-12-24T15:42:19.394Z,100163.66
2022-12-24T15:44:45.699Z,100170.41
2022-12-24T15:47:12.002Z,100179.22
2022-12-24T15:49:38.558Z,100174.06
2022-12-24T15:52:04.898Z,100175.25
2022-12-24T15:54:31.265Z,100174.50
2022-12-24T15:56:57.571Z,100178.66
2022-12-24T15:59:23.940Z,100176.34
2022-12-24T16:01:50.591Z,100176.34
2022-12-24T16:04:17.024Z,100181.72
2022-12-24T16:06:43.339Z,100189.25
2022-12-24T16:09:09.637Z,100196.22
2022-12-24T16:11:36.013Z,100201.59
2022-12-24T16:14:02.350Z,100203.97
2022-12-24T16:16:28.756Z,100233.13
2022-12-24T16:18:55.222Z,100247.22
2022-12-24T16:21:21.756Z,100237.44
2022-12-24T16:23:48.070Z,100230.50
2022-12-24T16:26:14.395Z,100233.81
2022-12-24T16:28:40.726Z,100245.75
2022-12-24T16:31:07.200Z,100253.16
2022-12-24T16:33:33.642Z,100251.19
2022-12-24T16:35:59.943Z,100245.00
2022-12-24T16:38:26.382Z,100240.97
2022-12-24T16:40:52.872Z,100251.34
2022-12-24T16:43:38.155Z,100253.91
2022-12-24T16:46:04.575Z,100256.03
2022-12-24T16:48:31.057Z,100268.47
2022-12-24T16:50:57.476Z,100267.22
2022-12-24T16:53:23.810Z,100270.31
2022-12-24T16:55:51.652Z,100273.69
2022-12-24T16:58:17.990Z,100266.53
2022-12-24T17:00:45.005Z,100270.78
2022-12-24T17:03:11.510Z,100264.34
2022-12-24T17:05:37.912Z,100263.38
2022-12-24T17:08:04.221Z,100264.69
2022-12-24T17:10:30.545Z,100268.00
2022-12-24T17:12:56.841Z,100279.06
2022-12-24T17:15:23.221Z,100271.69
2022-12-24T17:17:49.555Z,100268.44
2022-12-24T17:20:22.031Z,100277.16
2022-12-24T17:22:50.235Z,100279.12
2022-12-24T17:25:16.568Z,100295.03
2022-12-24T17:27:42.885Z,100293.88
2022-12-24T17:30:09.337Z,100306.47
2022-12-24T17:32:37.414Z,100297.97
2022-12-24T17:35:03.850Z,100293.03
2022-12-24T17:37:30.285Z,100296.66
2022-12-24T17:39:56.665Z,100299.94
2022-12-24T17:42:23.028Z,100301.22
2022-12-24T17:44:49.398Z,100314.00
2022-12-24T17:47:15.706Z,100299.91
2022-12-24T17:49:42.110Z,100307.63
2022-12-24T17:52:08.610Z,100321.34
2022-12-24T17:54:34.972Z,100317.88
2022-12-24T17:57:01.889Z,100315.09
2022-12-24T17:59:28.225Z,100315.56
2022-12-24T18:01:54.592Z,100318.03
2022-12-24T18:04:21.032Z,100318.31
2022-12-24T18:06:49.561Z,100339.91
2022-12-24T18:09:16.319Z,100332.41
2022-12-24T18:11:42.800Z,100339.97
2022-12-24T18:14:09.289Z,100341.75
2022-12-24T18:16:35.682Z,100344.44
2022-12-24T18:19:02.075Z,100347.69
2022-12-24T18:21:28.445Z,100354.19
2022-12-24T18:23:57.883Z,100358.59
2022-12-24T18:26:24.209Z,100356.44
2022-12-24T18:28:50.640Z,100356.06
2022-12-24T18:31:16.975Z,100352.28
2022-12-24T18:33:43.353Z,100359.41
2022-12-24T18:36:09.691Z,100367.16
2022-12-24T18:38:36.008Z,100368.22
2022-12-24T18:41:02.372Z,100361.06
2022-12-24T18:43:28.693Z,100363.38
2022-12-24T18:45:55.030Z,100367.53
2022-12-24T18:48:21.343Z,100366.50
2022-12-24T18:50:47.690Z,100371.00
2022-12-24T18:53:13.996Z,100364.31
2022-12-24T18:55:40.528Z,100372.28
2022-12-24T18:58:06.885Z,100375.28
2022-12-24T19:00:33.236Z,100379.09
2022-12-24T19:02:59.624Z,100380.16
2022-12-24T19:05:25.984Z,100381.97
2022-12-24T19:07:52.337Z,100373.13
2022-12-24T19:10:18.687Z,100365.75
2022-12-24T19:12:45.027Z,100369.34
2022-12-24T19:15:11.336Z,100372.22
2022-12-24T19:17:37.644Z,100383.28
2022-12-24T19:20:03.972Z,100388.88
2022-12-24T19:22:30.315Z,100394.69
2022-12-24T19:24:56.667Z,100399.53
2022-12-24T19:27:23.041Z,100398.06
2022-12-24T19:29:49.411Z,100405.78
2022-12-24T19:32:15.891Z,100405.06
2022-12-24T19:34:42.545Z,100415.00
2022-12-24T19:37:08.992Z,100403.53
2022-12-24T19:39:35.372Z,100396.03
2022-12-24T19:42:01.713Z,100409.28
2022-12-24T19:44:28.016Z,100417.81
2022-12-24T19:46:54.379Z,100423.31
2022-12-24T19:49:20.686Z,100425.50
2022-12-24T19:51:47.130Z,100418.09
2022-12-24T19:54:18.876Z,100424.25
2022-12-24T19:56:45.589Z,100426.81
2022-12-24T19:59:12.102Z,100427.28
2022-12-24T20:01:38.675Z,100427.50
2022-12-24T20:04:05.252Z,100421.59
2022-12-24T20:06:31.620Z,100433.28
2022-12-24T20:08:57.940Z,100433.78
2022-12-24T20:11:24.268Z,100439.84
2022-12-24T20:13:50.576Z,100447.63
2022-12-24T20:16:16.915Z,100448.06
2022-12-24T20:18:43.327Z,100452.34
2022-12-24T20:21:09.687Z,100454.41
2022-12-24T20:23:36.034Z,100463.03
2022-12-24T20:26:02.416Z,100463.81
2022-12-24T20:28:28.730Z,100461.81
2022-12-24T20:30:55.079Z,100458.28
2022-12-24T20:33:21.400Z,100452.53
2022-12-24T20:35:47.790Z,100460.19
2022-12-24T20:38:14.103Z,100452.69
2022-12-24T20:40:40.451Z,100456.94
2022-12-24T20:43:06.784Z,100452.19
2022-12-24T20:45:33.200Z,100456.22
2022-12-24T20:47:59.532Z,100454.97
2022-12-24T20:50:27.085Z,100461.94
2022-12-24T20:52:53.442Z,100462.19
2022-12-24T20:55:19.769Z,100460.87
2022-12-24T20:57:46.288Z,100470.75
2022-12-24T21:00:12.783Z,100470.28
2022-12-24T21:02:39.363Z,100469.47
2022-12-24T21:05:05.892Z,100461.34
2022-12-24T21:07:32.198Z,100459.62
2022-12-24T21:09:58.497Z,100467.22
2022-12-24T21:12:43.794Z,100464.19
2022-12-24T21:15:10.115Z,100474.13
2022-12-24T21:17:36.470Z,100467.09
2022-12-24T21:20:04.187Z,100479.91
2022-12-24T21:22:30.512Z,100470.94
2022-12-24T21:24:56.887Z,100478.72
2022-12-24T21:27:23.211Z,100480.34
2022-12-24T21:29:49.564Z,100482.09
2022-12-24T21:32:15.876Z,100488.66
2022-12-24T21:34:42.206Z,100483.72
2022-12-24T21:37:08.542Z,100483.41
2022-12-24T21:39:34.992Z,100480.50
2022-12-24T21:42:01.430Z,100495.28
2022-12-24T21:44:27.812Z,100484.03
2022-12-24T21:46:54.304Z,100489.84
2022-12-24T21:49:39.546Z,100491.56
2022-12-24T21:52:05.865Z,100492.88
2022-12-24T21:54:33.196Z,100501.75
2022-12-24T21:57:18.497Z,100502.22
2022-12-24T21:59:44.901Z,100501.41
2022-12-24T22:02:11.774Z,100494.63
2022-12-24T22:04:38.235Z,100500.56
2022-12-24T22:07:23.704Z,100506.75
2022-12-24T22:10:08.806Z,100523.06
2022-12-24T22:12:35.235Z,100519.03
2022-12-24T22:15:01.555Z,100525.09
2022-12-24T22:17:27.883Z,100527.12
2022-12-24T22:19:54.204Z,100519.03
2022-12-24T22:22:20.569Z,100521.34
2022-12-24T22:24:46.890Z,100532.56
2022-12-24T22:27:13.293Z,100531.28
2022-12-24T22:29:39.608Z,100546.72
2022-12-24T22:32:05.932Z,100545.25
2022-12-24T22:34:32.907Z,100544.44
2022-12-24T22:36:59.256Z,100539.66
2022-12-24T22:39:25.570Z,100537.12
2022-12-24T22:41:52.366Z,100532.06
2022-12-24T22:44:18.675Z,100547.22
2022-12-24T22:46:45.077Z,100542.00
2022-12-24T22:49:11.516Z,100549.31
2022-12-24T22:51:37.846Z,100567.00
2022-12-24T22:54:04.160Z,100576.66
2022-12-24T22:56:33.167Z,100572.66
2022-12-24T22:59:04.357Z,100560.59
2022-12-24T23:01:30.794Z,100564.78
2022-12-24T23:03:57.293Z,100574.59
2022-12-24T23:06:23.628Z,100581.44
2022-12-24T23:08:49.973Z,100593.03
2022-12-24T23:11:16.280Z,100602.31
2022-12-24T23:14:01.413Z,100590.09
2022-12-24T23:16:27.753Z,100599.37
2022-12-24T23:18:54.137Z,100602.47
2022-12-24T23:21:20.440Z,100593.06
2022-12-24T23:23:46.777Z,100600.59
2022-12-24T23:26:13.097Z,100607.63
2022-12-24T23:28:39.454Z,100605.59
2022-12-24T23:31:07.195Z,100619.00
2022-12-24T23:33:33.571Z,100609.81
2022-12-24T23:35:59.877Z,100600.72
2022-12-24T23:38:26.213Z,100611.72
2022-12-24T23:40:52.515Z,100608.62
2022-12-24T23:43:18.866Z,100608.62
2022-12-24T23:45:45.175Z,100595.38
2022-12-24T23:48:11.489Z,100600.97
2022-12-24T23:50:38.025Z,100614.78
2022-12-24T23:53:04.370Z,100609.31
2022-12-24T23:55:30.690Z,100627.41
2022-12-24T23:57:57.028Z,100624.25
